X  Zatvori METAR podaci zračne luke     LIPX Verona-Villafranca Valerio Catullo Airport
Temperatura
46°F Temperatura
19°F Točka rosišta
34% Vlaga



Vjetar
2 MPS
3 KM/S
1 M/S
2 Čvorovi



Tišina
S
Trenutna situacija

Vedro Vedro
Tlak zraka 1005.76 (hPa) - 29.7 (inHg)
Vidljivost 6 (milje) - 9.7 (km)
Zračna luka
Kôd zračne luke LIPX

Lokacija: Verona-Villafranca Valerio Catullo Airport
Udaljenost: 0 (mi)

Metar:
LIPX 251550Z VRB02KT CAVOK 08/M07 Q1006

Vrijeme: 25-11-2023 15:50 CET